createdAt,value
2017-08-27T00:02:18.692Z,63.70
2017-08-27T00:04:46.630Z,63.60
2017-08-27T00:07:14.515Z,63.60
2017-08-27T00:09:42.854Z,63.80
2017-08-27T00:12:10.302Z,63.70
2017-08-27T00:14:37.803Z,63.60
2017-08-27T00:17:05.284Z,64.40
2017-08-27T00:19:33.178Z,64.40
2017-08-27T00:22:01.072Z,63.50
2017-08-27T00:24:29.093Z,64.10
2017-08-27T00:26:56.609Z,63.50
2017-08-27T00:29:24.226Z,64.20
2017-08-27T00:31:51.679Z,63.60
2017-08-27T00:34:19.917Z,63.90
2017-08-27T00:36:47.399Z,63.90
2017-08-27T00:39:15.030Z,64.10
2017-08-27T00:41:42.519Z,64.00
2017-08-27T00:44:09.961Z,63.90
2017-08-27T00:46:37.435Z,63.80
2017-08-27T00:49:05.593Z,64.10
2017-08-27T00:51:33.077Z,64.20
2017-08-27T00:54:01.399Z,64.10
2017-08-27T00:56:29.021Z,64.10
2017-08-27T00:58:56.801Z,64.00
2017-08-27T01:01:24.270Z,63.70
2017-08-27T01:03:51.725Z,63.70
2017-08-27T01:06:19.204Z,64.00
2017-08-27T01:08:47.873Z,64.00
2017-08-27T01:11:16.251Z,64.10
2017-08-27T01:13:45.586Z,63.90
2017-08-27T01:16:13.060Z,63.70
2017-08-27T01:18:40.789Z,63.70
2017-08-27T01:21:08.981Z,63.80
2017-08-27T01:23:36.825Z,63.70
2017-08-27T01:26:04.310Z,63.90
2017-08-27T01:28:31.780Z,64.30
2017-08-27T01:30:59.298Z,63.40
2017-08-27T01:33:27.209Z,63.40
2017-08-27T01:35:54.790Z,63.20
2017-08-27T01:38:22.590Z,64.00
2017-08-27T01:40:50.043Z,63.20
2017-08-27T01:43:17.693Z,63.30
2017-08-27T01:45:45.640Z,63.20
2017-08-27T01:48:13.091Z,63.30
2017-08-27T01:50:41.437Z,63.30
2017-08-27T01:53:08.888Z,63.10
2017-08-27T01:55:36.738Z,63.00
2017-08-27T01:58:04.442Z,63.10
2017-08-27T02:00:31.953Z,63.10
2017-08-27T02:02:59.424Z,63.10
2017-08-27T02:05:28.944Z,63.20
2017-08-27T02:07:56.709Z,63.20
2017-08-27T02:10:24.560Z,63.20
2017-08-27T02:12:52.719Z,63.10
2017-08-27T02:15:21.093Z,63.20
2017-08-27T02:17:49.026Z,63.40
2017-08-27T02:20:16.977Z,63.10
2017-08-27T02:22:44.929Z,63.20
2017-08-27T02:25:13.503Z,63.60
2017-08-27T02:27:41.461Z,63.40
2017-08-27T02:30:09.356Z,63.40
2017-08-27T02:32:36.933Z,63.40
2017-08-27T02:35:04.444Z,63.40
2017-08-27T02:37:32.405Z,63.10
2017-08-27T02:40:00.436Z,63.20
2017-08-27T02:42:28.053Z,63.20
2017-08-27T02:44:55.648Z,63.20
2017-08-27T02:47:23.598Z,63.30
2017-08-27T02:49:51.119Z,63.20
2017-08-27T02:52:18.625Z,63.30
2017-08-27T02:54:46.373Z,63.20
2017-08-27T02:57:15.824Z,63.30
2017-08-27T02:59:43.459Z,63.30
2017-08-27T03:02:11.038Z,63.30
2017-08-27T03:04:39.431Z,63.20
2017-08-27T03:07:08.288Z,63.00
2017-08-27T03:09:37.302Z,63.00
2017-08-27T03:12:05.072Z,63.00
2017-08-27T03:14:37.737Z,62.90
2017-08-27T03:17:05.473Z,62.50
2017-08-27T03:19:33.349Z,62.30
2017-08-27T03:22:02.641Z,62.30
2017-08-27T03:24:30.996Z,62.30
2017-08-27T03:26:58.956Z,62.30
2017-08-27T03:29:26.912Z,62.30
2017-08-27T03:31:54.961Z,62.50
2017-08-27T03:34:24.274Z,62.50
2017-08-27T03:36:51.877Z,62.40
2017-08-27T03:39:19.671Z,62.60
2017-08-27T03:41:47.272Z,62.70
2017-08-27T03:44:14.781Z,62.90
2017-08-27T03:46:42.921Z,63.00
2017-08-27T03:49:10.441Z,63.00
2017-08-27T03:51:38.120Z,63.30
2017-08-27T03:54:05.709Z,63.20
2017-08-27T03:56:33.229Z,63.30
2017-08-27T03:59:01.277Z,63.30
2017-08-27T04:01:29.234Z,63.30
2017-08-27T04:03:56.752Z,63.50
2017-08-27T04:06:24.257Z,63.70
2017-08-27T04:08:52.400Z,63.80
2017-08-27T04:11:20.102Z,63.70
2017-08-27T04:13:47.705Z,63.90
2017-08-27T04:16:15.206Z,64.10
2017-08-27T04:18:43.356Z,64.10
2017-08-27T04:21:11.490Z,64.10
2017-08-27T04:23:41.345Z,64.30
2017-08-27T04:26:10.287Z,64.40
2017-08-27T04:28:38.424Z,64.40
2017-08-27T04:31:06.030Z,64.30
2017-08-27T04:33:33.549Z,64.50
2017-08-27T04:36:01.143Z,64.60
2017-08-27T04:38:28.642Z,64.70
2017-08-27T04:40:56.258Z,64.60
2017-08-27T04:43:24.313Z,64.90
2017-08-27T04:45:51.825Z,65.00
2017-08-27T04:48:19.419Z,64.90
2017-08-27T04:50:49.092Z,65.10
2017-08-27T04:53:16.780Z,65.10
2017-08-27T04:55:44.309Z,65.10
2017-08-27T04:58:12.543Z,65.40
2017-08-27T05:00:40.948Z,65.50
2017-08-27T05:03:09.269Z,65.90
2017-08-27T05:05:36.778Z,65.90
2017-08-27T05:08:04.745Z,65.90
2017-08-27T05:10:32.689Z,66.00
2017-08-27T05:13:00.911Z,66.10
2017-08-27T05:15:28.430Z,66.20
2017-08-27T05:17:56.475Z,66.30
2017-08-27T05:20:25.258Z,66.50
2017-08-27T05:22:53.388Z,66.40
2017-08-27T05:25:22.043Z,66.20
2017-08-27T05:27:50.721Z,66.30
2017-08-27T05:30:18.950Z,66.30
2017-08-27T05:32:46.463Z,66.50
2017-08-27T05:35:13.970Z,66.70
2017-08-27T05:37:41.482Z,67.70
2017-08-27T05:40:09.292Z,67.10
2017-08-27T05:42:36.806Z,67.90
2017-08-27T05:45:04.886Z,67.10
2017-08-27T05:47:32.458Z,67.10
2017-08-27T05:50:00.179Z,67.20
2017-08-27T05:52:27.793Z,67.10
2017-08-27T05:54:56.001Z,67.00
2017-08-27T05:57:24.050Z,67.10
2017-08-27T05:59:51.562Z,67.20
2017-08-27T06:02:19.074Z,67.20
2017-08-27T06:04:47.116Z,67.20
2017-08-27T06:07:15.528Z,67.20
2017-08-27T06:09:43.885Z,67.10
2017-08-27T06:12:11.777Z,67.30
2017-08-27T06:14:39.336Z,67.30
2017-08-27T06:17:07.125Z,67.20
2017-08-27T06:19:34.994Z,67.30
2017-08-27T06:22:03.053Z,67.20
2017-08-27T06:24:31.536Z,67.10
2017-08-27T06:26:59.481Z,67.00
2017-08-27T06:29:26.994Z,66.80
2017-08-27T06:31:55.048Z,66.60
2017-08-27T06:34:22.641Z,66.30
2017-08-27T06:36:50.601Z,66.10
2017-08-27T06:39:18.145Z,66.20
2017-08-27T06:41:46.094Z,66.30
2017-08-27T06:44:13.606Z,66.60
2017-08-27T06:46:41.144Z,66.50
2017-08-27T06:49:08.641Z,66.30
2017-08-27T06:51:36.232Z,66.60
2017-08-27T06:54:03.876Z,65.70
2017-08-27T06:56:31.643Z,65.00
2017-08-27T06:58:59.594Z,64.20
2017-08-27T07:01:27.099Z,63.80
2017-08-27T07:03:55.058Z,64.00
2017-08-27T07:06:23.111Z,64.50
2017-08-27T07:08:51.452Z,64.70
2017-08-27T07:11:19.134Z,64.60
2017-08-27T07:13:46.642Z,64.10
2017-08-27T07:16:15.049Z,64.10
2017-08-27T07:18:43.100Z,64.10
2017-08-27T07:21:11.699Z,63.70
2017-08-27T07:23:40.923Z,63.20
2017-08-27T07:26:08.983Z,62.60
2017-08-27T07:28:36.485Z,62.70
2017-08-27T07:31:04.049Z,62.90
2017-08-27T07:33:31.590Z,63.10
2017-08-27T07:35:59.100Z,62.70
2017-08-27T07:38:27.066Z,62.80
2017-08-27T07:40:54.689Z,62.70
2017-08-27T07:43:22.280Z,62.20
2017-08-27T07:45:49.885Z,61.90
2017-08-27T07:48:18.389Z,61.60
2017-08-27T07:50:45.906Z,62.10
2017-08-27T07:53:13.667Z,61.90
2017-08-27T07:55:41.283Z,62.00
2017-08-27T07:58:09.693Z,62.00
2017-08-27T08:00:37.207Z,61.20
2017-08-27T08:03:05.439Z,60.50
2017-08-27T08:05:34.744Z,60.00
2017-08-27T08:08:02.703Z,60.40
2017-08-27T08:10:31.047Z,60.20
2017-08-27T08:12:59.096Z,60.00
2017-08-27T08:15:27.234Z,59.70
2017-08-27T08:17:55.194Z,59.20
2017-08-27T08:20:23.258Z,59.00
2017-08-27T08:22:51.476Z,58.40
2017-08-27T08:25:19.499Z,58.80
2017-08-27T08:27:48.530Z,58.60
2017-08-27T08:30:18.026Z,58.20
2017-08-27T08:32:45.525Z,58.00
2017-08-27T08:35:13.127Z,57.90
2017-08-27T08:37:42.360Z,57.40
2017-08-27T08:40:09.961Z,56.60
2017-08-27T08:42:37.485Z,57.40
2017-08-27T08:45:04.983Z,55.80
2017-08-27T08:47:32.501Z,56.70
2017-08-27T08:50:00.000Z,55.80
2017-08-27T08:52:27.874Z,55.20
2017-08-27T08:54:55.397Z,55.30
2017-08-27T08:57:23.363Z,54.50
2017-08-27T08:59:51.409Z,55.70
2017-08-27T09:02:18.917Z,56.00
2017-08-27T09:04:47.150Z,55.80
2017-08-27T09:07:15.158Z,55.80
2017-08-27T09:09:43.901Z,55.70
2017-08-27T09:12:11.416Z,55.10
2017-08-27T09:14:39.860Z,54.70
2017-08-27T09:17:07.600Z,55.30
2017-08-27T09:19:35.652Z,55.50
2017-08-27T09:22:04.508Z,55.10
2017-08-27T09:24:32.590Z,54.40
2017-08-27T09:27:00.461Z,53.00
2017-08-27T09:29:28.603Z,53.40
2017-08-27T09:31:56.262Z,54.10
2017-08-27T09:34:23.799Z,53.70
2017-08-27T09:36:52.053Z,52.80
2017-08-27T09:39:19.498Z,52.80
2017-08-27T09:41:47.271Z,54.40
2017-08-27T09:44:14.832Z,53.80
2017-08-27T09:46:43.500Z,54.20
2017-08-27T09:49:11.376Z,54.50
2017-08-27T09:51:39.352Z,54.20
2017-08-27T09:54:06.839Z,52.20
2017-08-27T09:56:34.802Z,51.00
2017-08-27T09:59:02.680Z,49.90
2017-08-27T10:01:30.725Z,52.20
2017-08-27T10:03:58.599Z,52.10
2017-08-27T10:06:26.099Z,53.40
2017-08-27T10:08:54.337Z,53.40
2017-08-27T10:11:21.856Z,52.40
2017-08-27T10:13:50.297Z,50.50
2017-08-27T10:16:17.877Z,51.60
2017-08-27T10:18:45.955Z,51.60
2017-08-27T10:21:13.674Z,51.30
2017-08-27T10:23:42.411Z,50.70
2017-08-27T10:26:11.089Z,49.30
2017-08-27T10:28:38.597Z,49.60
2017-08-27T10:31:06.122Z,48.50
2017-08-27T10:33:33.621Z,49.50
2017-08-27T10:36:01.218Z,49.10
2017-08-27T10:38:29.902Z,49.40
2017-08-27T10:40:57.484Z,49.30
2017-08-27T10:43:25.154Z,49.80
2017-08-27T10:45:52.641Z,48.00
2017-08-27T10:48:20.298Z,49.70
2017-08-27T10:50:47.843Z,50.50
2017-08-27T10:53:15.381Z,48.20
2017-08-27T10:55:46.131Z,47.40
2017-08-27T10:58:14.118Z,46.90
2017-08-27T11:00:41.639Z,47.40
2017-08-27T11:03:09.082Z,47.00
2017-08-27T11:05:36.921Z,46.60
2017-08-27T11:08:04.768Z,46.30
2017-08-27T11:10:33.849Z,46.30
2017-08-27T11:13:01.309Z,46.80
2017-08-27T11:15:28.771Z,46.20
2017-08-27T11:17:56.803Z,45.10
2017-08-27T11:20:24.269Z,44.30
2017-08-27T11:22:52.177Z,41.20
2017-08-27T11:25:20.967Z,42.00
2017-08-27T11:27:48.709Z,41.40
2017-08-27T11:30:16.190Z,42.00
2017-08-27T11:32:44.305Z,43.30
2017-08-27T11:35:11.784Z,43.30
2017-08-27T11:37:39.220Z,40.90
2017-08-27T11:40:06.798Z,41.00
2017-08-27T11:42:34.436Z,42.90
2017-08-27T11:45:03.033Z,43.80
2017-08-27T11:47:30.900Z,42.80
2017-08-27T11:49:58.358Z,41.30
2017-08-27T11:52:26.575Z,41.90
2017-08-27T11:54:54.651Z,41.90
2017-08-27T11:57:22.535Z,42.00
2017-08-27T11:59:50.009Z,39.70
2017-08-27T12:02:17.988Z,40.70
2017-08-27T12:04:45.940Z,40.90
2017-08-27T12:07:14.069Z,39.90
2017-08-27T12:09:42.150Z,39.60
2017-08-27T12:12:09.651Z,38.60
2017-08-27T12:14:37.604Z,38.10
2017-08-27T12:17:05.053Z,36.80
2017-08-27T12:19:32.760Z,37.10
2017-08-27T12:22:00.754Z,36.60
2017-08-27T12:24:28.741Z,36.40
2017-08-27T12:26:56.185Z,35.80
2017-08-27T12:29:23.744Z,35.80
2017-08-27T12:31:52.270Z,37.80
2017-08-27T12:34:20.040Z,36.60
2017-08-27T12:36:47.500Z,36.30
2017-08-27T12:39:15.020Z,37.50
2017-08-27T12:41:42.491Z,38.10
2017-08-27T12:44:10.417Z,37.00
2017-08-27T12:46:38.333Z,36.60
2017-08-27T12:49:05.775Z,35.90
2017-08-27T12:51:33.663Z,36.70
2017-08-27T12:54:01.138Z,33.20
2017-08-27T12:56:28.612Z,34.50
2017-08-27T12:58:56.365Z,35.50
2017-08-27T13:01:24.915Z,36.20
2017-08-27T13:03:52.383Z,36.80
2017-08-27T13:06:19.838Z,37.00
2017-08-27T13:08:48.423Z,38.10
2017-08-27T13:11:16.268Z,38.40
2017-08-27T13:13:43.724Z,38.30
2017-08-27T13:16:13.686Z,38.60
2017-08-27T13:18:41.798Z,38.30
2017-08-27T13:21:13.412Z,37.90
2017-08-27T13:23:41.311Z,37.10
2017-08-27T13:26:08.732Z,37.70
2017-08-27T13:28:36.202Z,38.00
2017-08-27T13:31:04.380Z,37.50
2017-08-27T13:33:32.350Z,36.60
2017-08-27T13:36:00.603Z,36.30
2017-08-27T13:38:28.750Z,36.90
2017-08-27T13:40:56.217Z,38.30
2017-08-27T13:43:24.789Z,36.90
2017-08-27T13:45:52.814Z,36.80
2017-08-27T13:48:20.322Z,38.30
2017-08-27T13:50:48.597Z,39.40
2017-08-27T13:53:16.025Z,39.80
2017-08-27T13:55:43.783Z,40.30
2017-08-27T13:58:11.696Z,40.60
2017-08-27T14:00:40.574Z,39.10
2017-08-27T14:03:08.028Z,39.10
2017-08-27T14:05:36.122Z,39.30
2017-08-27T14:08:04.044Z,38.10
2017-08-27T14:10:31.940Z,37.10
2017-08-27T14:12:59.410Z,37.60
2017-08-27T14:15:26.993Z,38.40
2017-08-27T14:17:55.081Z,37.50
2017-08-27T14:20:22.573Z,36.80
2017-08-27T14:22:51.630Z,35.50
2017-08-27T14:25:19.488Z,35.60
2017-08-27T14:27:47.671Z,35.40
2017-08-27T14:30:15.134Z,35.90
2017-08-27T14:32:43.011Z,36.30
2017-08-27T14:35:10.491Z,36.40
2017-08-27T14:37:37.949Z,37.40
2017-08-27T14:40:05.953Z,37.50
2017-08-27T14:42:33.418Z,36.30
2017-08-27T14:45:01.315Z,36.30
2017-08-27T14:47:28.761Z,36.90
2017-08-27T14:49:56.217Z,36.30
2017-08-27T14:52:24.445Z,36.20
2017-08-27T14:54:52.457Z,36.20
2017-08-27T14:57:20.480Z,35.40
2017-08-27T14:59:47.946Z,35.20
2017-08-27T15:02:15.552Z,35.80
2017-08-27T15:04:42.989Z,36.20
2017-08-27T15:07:11.593Z,36.20
2017-08-27T15:09:39.742Z,36.10
2017-08-27T15:12:07.983Z,37.90
2017-08-27T15:14:35.599Z,37.80
2017-08-27T15:17:03.129Z,36.50
2017-08-27T15:19:31.024Z,36.40
2017-08-27T15:21:59.000Z,37.20
2017-08-27T15:24:26.960Z,37.50
2017-08-27T15:26:54.451Z,37.10
2017-08-27T15:29:22.424Z,37.40
2017-08-27T15:31:49.933Z,37.50
2017-08-27T15:34:17.990Z,38.50
2017-08-27T15:36:45.457Z,38.30
2017-08-27T15:39:12.991Z,38.90
2017-08-27T15:41:41.266Z,39.50
2017-08-27T15:44:08.742Z,38.70
2017-08-27T15:46:36.225Z,39.10
2017-08-27T15:49:04.316Z,37.60
2017-08-27T15:51:31.764Z,37.50
2017-08-27T15:53:59.206Z,38.20
2017-08-27T15:56:26.670Z,39.40
2017-08-27T15:58:54.530Z,40.20
2017-08-27T16:01:22.428Z,39.30
2017-08-27T16:03:49.877Z,39.40
2017-08-27T16:06:17.725Z,39.50
2017-08-27T16:08:45.542Z,38.80
2017-08-27T16:11:13.854Z,38.90
2017-08-27T16:13:42.091Z,39.00
2017-08-27T16:16:09.710Z,39.00
2017-08-27T16:18:39.447Z,39.00
2017-08-27T16:21:06.920Z,37.50
2017-08-27T16:23:36.229Z,37.60
2017-08-27T16:26:03.893Z,38.00
2017-08-27T16:28:31.715Z,37.20
2017-08-27T16:30:59.192Z,38.10
2017-08-27T16:33:27.780Z,37.00
2017-08-27T16:35:55.232Z,37.60
2017-08-27T16:38:23.058Z,37.40
2017-08-27T16:40:50.912Z,37.40
2017-08-27T16:43:18.587Z,37.30
2017-08-27T16:45:46.075Z,38.40
2017-08-27T16:48:13.518Z,38.10
2017-08-27T16:50:40.993Z,38.70
2017-08-27T16:53:08.442Z,38.90
2017-08-27T16:55:35.951Z,39.20
2017-08-27T16:58:03.950Z,38.80
2017-08-27T17:00:31.423Z,39.10
2017-08-27T17:02:59.448Z,38.90
2017-08-27T17:05:26.917Z,38.70
2017-08-27T17:07:54.786Z,39.00
2017-08-27T17:10:22.694Z,39.40
2017-08-27T17:12:50.127Z,39.10
2017-08-27T17:15:18.038Z,38.90
2017-08-27T17:17:45.838Z,39.30
2017-08-27T17:20:13.293Z,39.40
2017-08-27T17:22:41.094Z,38.90
2017-08-27T17:25:09.238Z,40.20
2017-08-27T17:27:36.765Z,39.80
2017-08-27T17:30:05.247Z,40.30
2017-08-27T17:32:32.692Z,40.10
2017-08-27T17:35:00.184Z,40.90
2017-08-27T17:37:27.648Z,41.40
2017-08-27T17:39:55.191Z,41.80
2017-08-27T17:42:24.161Z,42.10
2017-08-27T17:44:51.632Z,42.40
2017-08-27T17:47:20.298Z,42.70
2017-08-27T17:49:47.758Z,43.90
2017-08-27T17:52:15.195Z,43.60
2017-08-27T17:54:43.352Z,44.00
2017-08-27T17:57:11.313Z,44.20
2017-08-27T17:59:38.833Z,44.90
2017-08-27T18:02:06.626Z,45.20
2017-08-27T18:04:34.083Z,46.00
2017-08-27T18:07:01.923Z,46.50
2017-08-27T18:09:29.941Z,46.80
2017-08-27T18:11:57.537Z,47.20
2017-08-27T18:14:24.973Z,47.70
2017-08-27T18:16:52.418Z,47.70
2017-08-27T18:19:20.112Z,48.00
2017-08-27T18:21:49.281Z,48.40
2017-08-27T18:24:17.741Z,48.30
2017-08-27T18:26:45.715Z,48.60
2017-08-27T18:29:13.194Z,48.30
2017-08-27T18:31:40.658Z,48.50
2017-08-27T18:34:08.540Z,48.60
2017-08-27T18:36:36.011Z,49.00
2017-08-27T18:39:03.473Z,49.00
2017-08-27T18:41:32.334Z,49.40
2017-08-27T18:43:59.803Z,49.60
2017-08-27T18:46:27.424Z,49.60
2017-08-27T18:48:54.968Z,49.60
2017-08-27T18:51:22.526Z,49.50
2017-08-27T18:53:50.236Z,49.70
2017-08-27T18:56:17.684Z,50.30
2017-08-27T18:58:51.092Z,50.20
2017-08-27T19:01:19.457Z,50.60
2017-08-27T19:03:52.726Z,51.10
2017-08-27T19:06:20.318Z,51.20
2017-08-27T19:08:49.095Z,51.10
2017-08-27T19:11:16.648Z,51.30
2017-08-27T19:13:44.206Z,51.40
2017-08-27T19:16:12.287Z,51.20
2017-08-27T19:18:40.242Z,51.30
2017-08-27T19:21:07.908Z,51.80
2017-08-27T19:23:36.090Z,52.10
2017-08-27T19:26:05.035Z,52.80
2017-08-27T19:28:32.535Z,52.10
2017-08-27T19:31:00.045Z,52.40
2017-08-27T19:33:27.591Z,52.30
2017-08-27T19:35:55.242Z,52.40
2017-08-27T19:38:22.753Z,51.80
2017-08-27T19:40:50.635Z,52.00
2017-08-27T19:43:18.603Z,52.80
2017-08-27T19:45:46.108Z,53.00
2017-08-27T19:48:14.352Z,52.60
2017-08-27T19:50:41.895Z,52.60
2017-08-27T19:53:09.869Z,52.60
2017-08-27T19:55:37.993Z,52.70
2017-08-27T19:58:05.964Z,52.80
2017-08-27T20:00:34.102Z,53.10
2017-08-27T20:03:02.581Z,53.00
2017-08-27T20:05:30.187Z,53.20
2017-08-27T20:07:58.946Z,53.50
2017-08-27T20:10:26.822Z,54.00
2017-08-27T20:12:54.346Z,53.70
2017-08-27T20:15:22.226Z,54.10
2017-08-27T20:17:50.951Z,54.30
2017-08-27T20:20:19.230Z,54.80
2017-08-27T20:22:47.176Z,54.90
2017-08-27T20:25:15.245Z,55.00
2017-08-27T20:27:44.470Z,55.20
2017-08-27T20:30:12.168Z,55.40
2017-08-27T20:32:39.760Z,55.60
2017-08-27T20:35:08.168Z,55.80
2017-08-27T20:37:35.765Z,55.80
2017-08-27T20:40:03.293Z,56.00
2017-08-27T20:42:32.087Z,56.00
2017-08-27T20:44:59.712Z,56.00
2017-08-27T20:47:27.642Z,56.20
2017-08-27T20:49:55.329Z,56.20
2017-08-27T20:52:22.926Z,56.40
2017-08-27T20:54:51.611Z,56.40
2017-08-27T20:57:19.572Z,56.60
2017-08-27T20:59:47.631Z,56.80
2017-08-27T21:02:16.840Z,56.90
2017-08-27T21:04:44.614Z,57.00
2017-08-27T21:07:12.762Z,57.10
2017-08-27T21:09:40.895Z,56.90
2017-08-27T21:12:08.417Z,56.80
2017-08-27T21:14:36.258Z,56.90
2017-08-27T21:17:03.803Z,57.00
2017-08-27T21:19:31.594Z,57.10
2017-08-27T21:21:59.808Z,57.10
2017-08-27T21:24:27.588Z,57.40
2017-08-27T21:26:55.550Z,57.60
2017-08-27T21:29:23.537Z,57.80
2017-08-27T21:31:51.767Z,57.90
2017-08-27T21:34:19.364Z,57.90
2017-08-27T21:36:47.047Z,57.90
2017-08-27T21:39:14.550Z,57.70
2017-08-27T21:41:42.602Z,57.90
2017-08-27T21:44:10.123Z,58.10
2017-08-27T21:46:37.722Z,58.00
2017-08-27T21:49:05.232Z,58.00
2017-08-27T21:51:33.557Z,58.00
2017-08-27T21:54:01.523Z,58.00
2017-08-27T21:56:30.100Z,58.00
2017-08-27T21:58:58.281Z,58.00
2017-08-27T22:01:26.337Z,58.10
2017-08-27T22:03:54.214Z,58.10
2017-08-27T22:06:22.532Z,58.20
2017-08-27T22:08:50.299Z,58.20
2017-08-27T22:11:18.359Z,58.20
2017-08-27T22:13:45.961Z,58.30
2017-08-27T22:16:14.365Z,58.20
2017-08-27T22:18:42.514Z,58.20
2017-08-27T22:21:10.019Z,58.10
2017-08-27T22:23:38.705Z,58.10
2017-08-27T22:26:06.751Z,57.90
2017-08-27T22:28:34.281Z,57.80
2017-08-27T22:31:02.598Z,57.80
2017-08-27T22:33:30.643Z,57.70
2017-08-27T22:35:58.154Z,57.60
2017-08-27T22:38:25.763Z,57.70
2017-08-27T22:40:53.401Z,57.80
2017-08-27T22:43:22.223Z,57.70
2017-08-27T22:45:49.734Z,57.50
2017-08-27T22:48:17.689Z,58.10
2017-08-27T22:50:45.522Z,58.30
2017-08-27T22:53:13.084Z,58.40
2017-08-27T22:55:40.767Z,58.20
2017-08-27T22:58:08.788Z,58.80
2017-08-27T23:00:37.556Z,58.50
2017-08-27T23:03:06.234Z,58.00
2017-08-27T23:05:34.032Z,58.00
2017-08-27T23:08:01.984Z,58.10
2017-08-27T23:10:29.940Z,58.00
2017-08-27T23:12:58.302Z,58.10
2017-08-27T23:15:25.870Z,58.10
2017-08-27T23:17:53.923Z,58.20
2017-08-27T23:20:21.434Z,58.20
2017-08-27T23:22:49.306Z,58.60
2017-08-27T23:25:16.808Z,58.40
2017-08-27T23:27:44.787Z,58.40
2017-08-27T23:30:12.740Z,58.50
2017-08-27T23:32:40.256Z,58.60
2017-08-27T23:35:08.237Z,58.60
2017-08-27T23:37:35.718Z,58.70
2017-08-27T23:40:03.902Z,58.70
2017-08-27T23:42:31.884Z,58.60
2017-08-27T23:44:59.573Z,58.70
2017-08-27T23:47:27.545Z,58.90
2017-08-27T23:49:55.756Z,58.80
2017-08-27T23:52:23.360Z,58.90
2017-08-27T23:54:51.403Z,59.00
2017-08-27T23:57:19.408Z,59.10
2017-08-27T23:59:48.333Z,59.00
